Terminal Aerodrome Forecast
Issued by NWS

Home | Current Version | Previous Version | Text Only | Print | Product List | Glossary On
Versions: 1 2 3 4 5 6 7 8 9 10 11 12 13 14 15 16 17 18 19 20 21
000
FTUS43 KDVN 212032 AAA
TAFCID
TAF AMD
KCID 212032Z 2121/2218 19011KT P6SM SCT030
     FM220000 22010KT P6SM VCTS BKN040CB
      TEMPO 2200/2203 3SM TSRA OVC030CB
     FM220300 23011KT P6SM BKN060
     FM220500 24012KT 6SM BR VCTS BKN040CB
     FM220900 27010KT 3SM BR BKN020=

USA.gov is the U.S. government's official web portal to all federal, state and local government web resources and services.